createdAt,value
2022-12-28T00:01:23.261Z,10.90
2022-12-28T00:03:50.116Z,11.55
2022-12-28T00:06:17.320Z,10.30
2022-12-28T00:08:44.360Z,10.98
2022-12-28T00:11:28.277Z,11.82
2022-12-28T00:13:59.298Z,12.55
2022-12-28T00:16:30.146Z,16.02
2022-12-28T00:18:58.471Z,17.23
2022-12-28T00:21:25.473Z,17.05
2022-12-28T00:23:52.785Z,15.55
2022-12-28T00:26:19.920Z,14.55
2022-12-28T00:28:47.352Z,12.32
2022-12-28T00:31:14.341Z,11.85
2022-12-28T00:33:41.221Z,11.63
2022-12-28T00:36:09.583Z,11.95
2022-12-28T00:38:38.225Z,13.13
2022-12-28T00:41:05.613Z,9.82
2022-12-28T00:43:32.412Z,5.22
2022-12-28T00:45:59.416Z,11.07
2022-12-28T00:48:26.234Z,9.68
2022-12-28T00:50:53.063Z,9.25
2022-12-28T00:53:19.924Z,9.40
2022-12-28T00:55:46.706Z,8.48
2022-12-28T00:58:14.695Z,7.43
2022-12-28T01:00:41.542Z,7.55
2022-12-28T01:03:08.422Z,5.95
2022-12-28T01:05:38.083Z,7.43
2022-12-28T01:08:05.029Z,6.97
2022-12-28T01:10:31.828Z,7.15
2022-12-28T01:12:58.664Z,5.97
2022-12-28T01:15:25.596Z,6.60
2022-12-28T01:17:52.485Z,7.75
2022-12-28T01:20:19.374Z,7.55
2022-12-28T01:22:46.149Z,7.10
2022-12-28T01:25:13.733Z,10.75
2022-12-28T01:27:40.537Z,13.00
2022-12-28T01:30:08.285Z,18.07
2022-12-28T01:32:35.082Z,22.07
2022-12-28T01:35:01.806Z,17.17
2022-12-28T01:37:28.624Z,16.60
2022-12-28T01:39:55.558Z,15.77
2022-12-28T01:42:22.610Z,13.13
2022-12-28T01:44:50.383Z,13.03
2022-12-28T01:47:25.937Z,12.93
2022-12-28T01:50:02.205Z,13.37
2022-12-28T01:52:44.956Z,13.17
2022-12-28T01:55:14.968Z,13.77
2022-12-28T01:57:54.225Z,15.17
2022-12-28T02:00:21.107Z,15.00
2022-12-28T02:02:50.815Z,17.10
2022-12-28T02:05:17.689Z,14.23
2022-12-28T02:07:56.081Z,10.00
2022-12-28T02:10:42.804Z,7.10
2022-12-28T02:13:09.950Z,5.50
2022-12-28T02:15:36.798Z,5.17
2022-12-28T02:18:03.664Z,5.20
2022-12-28T02:20:40.121Z,5.43
2022-12-28T02:23:28.063Z,6.63
2022-12-28T02:26:32.139Z,11.13
2022-12-28T02:29:28.249Z,6.70
2022-12-28T02:31:55.072Z,7.63
2022-12-28T02:34:26.048Z,7.70
2022-12-28T02:39:23.991Z,12.17
2022-12-28T02:41:50.800Z,12.18
2022-12-28T02:44:37.627Z,10.85
2022-12-28T02:47:23.199Z,9.47
2022-12-28T02:50:08.178Z,11.50
2022-12-28T02:53:11.117Z,10.43
2022-12-28T02:56:00.745Z,12.60
2022-12-28T02:58:57.061Z,12.13
2022-12-28T03:01:48.489Z,11.27
2022-12-28T03:04:47.824Z,11.70
2022-12-28T03:07:36.933Z,9.43
2022-12-28T03:10:16.060Z,7.40
2022-12-28T03:13:27.712Z,6.43
2022-12-28T03:15:54.561Z,6.50
2022-12-28T03:18:40.017Z,6.07
2022-12-28T03:21:26.886Z,6.60
2022-12-28T03:24:12.243Z,6.90
2022-12-28T03:27:00.001Z,6.00
2022-12-28T03:29:45.181Z,6.23
2022-12-28T03:32:11.940Z,6.20
2022-12-28T03:34:38.727Z,7.32
2022-12-28T03:37:14.884Z,6.70
2022-12-28T03:39:49.286Z,5.97
2022-12-28T03:42:53.838Z,6.37
2022-12-28T03:45:44.298Z,7.80
2022-12-28T03:48:07.437Z,7.73
2022-12-28T03:50:38.799Z,7.17
2022-12-28T03:53:05.579Z,7.43
2022-12-28T03:55:32.425Z,8.60
2022-12-28T03:57:59.189Z,9.07
2022-12-28T04:00:25.967Z,10.97
2022-12-28T04:02:52.918Z,11.77
2022-12-28T04:05:21.391Z,10.80
2022-12-28T04:07:48.463Z,13.00
2022-12-28T04:10:15.285Z,9.23
2022-12-28T04:12:42.122Z,8.57
2022-12-28T04:15:09.233Z,8.80
2022-12-28T04:17:36.079Z,8.53
2022-12-28T04:20:03.071Z,8.53
2022-12-28T04:22:29.833Z,8.07
2022-12-28T04:24:56.587Z,7.60
2022-12-28T04:27:24.231Z,8.73
2022-12-28T04:29:51.090Z,7.47
2022-12-28T04:32:17.972Z,7.83
2022-12-28T04:34:48.371Z,7.60
2022-12-28T04:37:15.629Z,8.27
2022-12-28T04:39:56.115Z,7.50
2022-12-28T04:42:25.390Z,8.37
2022-12-28T04:44:52.191Z,7.97
2022-12-28T04:47:19.023Z,7.63
2022-12-28T04:49:45.903Z,7.23
2022-12-28T04:52:12.840Z,8.77
2022-12-28T04:54:39.632Z,10.43
2022-12-28T04:57:06.918Z,10.70
2022-12-28T04:59:33.861Z,10.90
2022-12-28T05:02:00.837Z,10.43
2022-12-28T05:04:27.707Z,11.53
2022-12-28T05:06:54.549Z,12.90
2022-12-28T05:09:21.424Z,10.67
2022-12-28T05:11:48.213Z,10.67
2022-12-28T05:14:15.095Z,14.47
2022-12-28T05:16:42.244Z,15.63
2022-12-28T05:19:09.109Z,18.00
2022-12-28T05:21:35.933Z,13.37
2022-12-28T05:24:02.783Z,14.70
2022-12-28T05:26:29.747Z,17.40
2022-12-28T05:28:56.929Z,14.90
2022-12-28T05:31:24.453Z,12.67
2022-12-28T05:33:51.564Z,13.27
2022-12-28T05:36:19.841Z,13.57
2022-12-28T05:38:46.795Z,13.03
2022-12-28T05:41:22.068Z,15.37
2022-12-28T05:43:48.903Z,20.20
2022-12-28T05:46:19.376Z,20.90
2022-12-28T05:48:46.466Z,21.30
2022-12-28T05:51:15.236Z,23.73
2022-12-28T05:53:42.277Z,17.60
2022-12-28T05:56:14.446Z,15.87
2022-12-28T05:58:42.610Z,10.80
2022-12-28T06:01:14.479Z,10.20
2022-12-28T06:03:41.485Z,11.53
2022-12-28T06:06:15.982Z,15.07
2022-12-28T06:08:43.316Z,10.17
2022-12-28T06:11:18.611Z,9.90
2022-12-28T06:13:45.588Z,10.03
2022-12-28T06:16:16.264Z,9.37
2022-12-28T06:18:43.215Z,10.15
2022-12-28T06:21:29.509Z,9.50
2022-12-28T06:23:57.799Z,9.50
2022-12-28T06:26:24.712Z,9.40
2022-12-28T06:28:51.503Z,10.33
2022-12-28T06:31:25.668Z,11.47
2022-12-28T06:33:57.099Z,14.40
2022-12-28T06:36:32.376Z,14.47
2022-12-28T06:38:59.772Z,11.17
2022-12-28T06:41:26.956Z,9.77
2022-12-28T06:43:54.173Z,10.00
2022-12-28T06:46:21.964Z,10.93
2022-12-28T06:48:48.892Z,10.90
2022-12-28T06:51:20.148Z,14.00
2022-12-28T06:53:47.282Z,11.13
2022-12-28T06:56:15.265Z,13.83
2022-12-28T06:58:42.175Z,14.53
2022-12-28T07:01:17.234Z,16.43
2022-12-28T07:03:44.661Z,15.30
2022-12-28T07:06:11.740Z,16.07
2022-12-28T07:08:40.303Z,15.27
2022-12-28T07:11:11.848Z,14.87
2022-12-28T07:13:38.709Z,15.10
2022-12-28T07:16:15.904Z,14.30
2022-12-28T07:18:42.748Z,15.13
2022-12-28T07:21:12.000Z,16.63
2022-12-28T07:23:38.944Z,21.13
2022-12-28T07:26:13.470Z,22.88
2022-12-28T07:28:41.180Z,15.35
2022-12-28T07:31:08.843Z,10.82
2022-12-28T07:33:35.924Z,11.05
2022-12-28T07:36:03.886Z,10.93
2022-12-28T07:38:30.618Z,10.13
2022-12-28T07:41:21.404Z,10.63
2022-12-28T07:43:48.299Z,8.30
2022-12-28T07:46:15.910Z,9.45
2022-12-28T07:48:43.263Z,10.68
2022-12-28T07:51:20.003Z,12.43
2022-12-28T07:53:47.803Z,10.68
2022-12-28T07:56:14.782Z,10.38
2022-12-28T08:01:10.976Z,10.57
2022-12-28T08:03:38.150Z,9.75
2022-12-28T08:06:15.852Z,9.55
2022-12-28T08:08:44.031Z,10.85
2022-12-28T08:11:16.098Z,11.93
2022-12-28T08:13:44.335Z,12.55
2022-12-28T08:16:12.449Z,20.38
2022-12-28T08:18:40.309Z,131.43
2022-12-28T08:21:15.169Z,25.23
2022-12-28T08:23:42.303Z,18.75
2022-12-28T08:26:09.089Z,18.40
2022-12-28T08:28:35.937Z,14.45
2022-12-28T08:31:09.994Z,12.30
2022-12-28T08:33:36.884Z,13.27
2022-12-28T08:36:07.421Z,13.10
2022-12-28T08:41:02.198Z,14.93
2022-12-28T08:43:29.147Z,14.70
2022-12-28T08:46:00.329Z,11.38
2022-12-28T08:48:27.254Z,9.50
2022-12-28T08:50:54.196Z,9.73
2022-12-28T08:53:24.144Z,12.00
2022-12-28T08:55:51.593Z,14.55
2022-12-28T08:58:18.595Z,12.60
2022-12-28T09:00:45.413Z,12.52
2022-12-28T09:03:12.305Z,14.52
2022-12-28T09:05:39.965Z,15.68
2022-12-28T09:08:06.846Z,15.88
2022-12-28T09:10:33.626Z,16.95
2022-12-28T09:13:00.438Z,13.38
2022-12-28T09:15:27.267Z,12.82
2022-12-28T09:17:54.044Z,11.80
2022-12-28T09:20:20.909Z,9.38
2022-12-28T09:22:47.793Z,4.55
2022-12-28T09:25:14.696Z,8.10
2022-12-28T09:27:41.532Z,8.77
2022-12-28T09:30:08.987Z,10.05
2022-12-28T09:32:35.830Z,9.50
2022-12-28T09:35:02.686Z,9.35
2022-12-28T09:37:29.475Z,8.20
2022-12-28T09:40:01.149Z,10.95
2022-12-28T09:42:29.030Z,10.38
2022-12-28T09:45:04.199Z,10.27
2022-12-28T09:47:40.230Z,10.02
2022-12-28T09:50:16.555Z,11.07
2022-12-28T09:52:53.199Z,11.63
2022-12-28T09:55:20.058Z,13.73
2022-12-28T09:57:51.112Z,14.02
2022-12-28T10:00:23.766Z,13.88
2022-12-28T10:03:04.413Z,14.18
2022-12-28T10:05:31.366Z,13.75
2022-12-28T10:07:58.526Z,14.25
2022-12-28T10:10:25.293Z,18.08
2022-12-28T10:12:52.260Z,13.73
2022-12-28T10:15:19.259Z,15.60
2022-12-28T10:17:46.034Z,17.08
2022-12-28T10:20:20.594Z,17.17
2022-12-28T10:22:54.238Z,15.55
2022-12-28T10:25:23.213Z,18.17
2022-12-28T10:27:50.115Z,16.50
2022-12-28T10:30:19.865Z,14.80
2022-12-28T10:32:51.933Z,16.73
2022-12-28T10:35:26.855Z,23.45
2022-12-28T10:38:15.561Z,23.90
2022-12-28T10:40:45.043Z,21.33
2022-12-28T10:43:19.153Z,21.85
2022-12-28T10:45:48.394Z,21.02
2022-12-28T10:48:18.428Z,23.63
2022-12-28T10:50:58.813Z,27.90
2022-12-28T10:53:29.707Z,33.63
2022-12-28T10:56:14.866Z,39.90
2022-12-28T10:58:45.718Z,44.78
2022-12-28T11:01:12.628Z,42.60
2022-12-28T11:04:06.818Z,45.38
2022-12-28T11:06:36.103Z,34.35
2022-12-28T11:09:24.530Z,35.75
2022-12-28T11:11:52.419Z,39.72
2022-12-28T11:14:26.901Z,37.10
2022-12-28T11:16:53.792Z,33.88
2022-12-28T11:19:20.999Z,34.45
2022-12-28T11:21:49.060Z,36.50
2022-12-28T11:24:16.826Z,35.80
2022-12-28T11:26:45.128Z,31.52
2022-12-28T11:29:13.948Z,31.13
2022-12-28T11:31:46.717Z,34.00
2022-12-28T11:34:17.754Z,37.15
2022-12-28T11:36:44.550Z,36.72
2022-12-28T11:39:26.446Z,39.58
2022-12-28T11:42:19.471Z,40.28
2022-12-28T11:44:40.961Z,38.92
2022-12-28T11:47:16.504Z,37.05
2022-12-28T11:49:44.361Z,35.97
2022-12-28T11:52:17.496Z,32.08
2022-12-28T11:54:53.350Z,28.70
2022-12-28T11:57:39.099Z,29.35
2022-12-28T12:00:23.107Z,29.40
2022-12-28T12:02:56.593Z,28.98
2022-12-28T12:05:38.735Z,30.42
2022-12-28T12:08:14.064Z,30.55
2022-12-28T12:10:42.562Z,26.27
2022-12-28T12:13:27.813Z,24.80
2022-12-28T12:16:05.384Z,32.13
2022-12-28T12:18:38.535Z,76.30
2022-12-28T12:21:13.340Z,37.72
2022-12-28T12:23:52.402Z,27.08
2022-12-28T12:26:39.466Z,23.83
2022-12-28T12:29:24.762Z,23.20
2022-12-28T12:32:02.903Z,19.42
2022-12-28T12:34:42.796Z,21.15
2022-12-28T12:37:35.626Z,20.85
2022-12-28T12:40:27.117Z,28.00
2022-12-28T12:43:24.659Z,18.80
2022-12-28T12:46:03.439Z,19.67
2022-12-28T12:48:33.108Z,18.13
2022-12-28T12:51:11.629Z,19.20
2022-12-28T12:54:23.634Z,19.63
2022-12-28T12:56:58.330Z,17.52
2022-12-28T12:59:28.037Z,17.13
2022-12-28T13:02:16.446Z,16.27
2022-12-28T13:04:44.653Z,16.92
2022-12-28T13:07:20.549Z,17.80
2022-12-28T13:09:47.300Z,17.83
2022-12-28T13:12:18.121Z,23.00
2022-12-28T13:14:49.002Z,26.20
2022-12-28T13:19:46.877Z,23.23
2022-12-28T13:22:30.702Z,23.35
2022-12-28T13:24:59.094Z,20.55
2022-12-28T13:27:34.193Z,52.28
2022-12-28T13:30:01.229Z,75.43
2022-12-28T13:32:32.770Z,36.80
2022-12-28T13:35:03.057Z,17.92
2022-12-28T13:37:30.628Z,17.63
2022-12-28T13:40:11.033Z,19.15
2022-12-28T13:43:00.949Z,15.10
2022-12-28T13:45:27.765Z,21.65
2022-12-28T13:47:54.530Z,17.48
2022-12-28T13:50:26.747Z,17.92
2022-12-28T13:52:58.259Z,19.25
2022-12-28T13:55:27.576Z,16.20
2022-12-28T13:57:59.916Z,17.80
2022-12-28T14:00:26.910Z,18.30
2022-12-28T14:02:54.481Z,20.17
2022-12-28T14:05:22.957Z,18.92
2022-12-28T14:07:49.998Z,29.92
2022-12-28T14:10:16.936Z,29.38
2022-12-28T14:12:44.129Z,32.30
2022-12-28T14:15:11.991Z,30.25
2022-12-28T14:17:38.962Z,30.08
2022-12-28T14:20:06.521Z,25.02
2022-12-28T14:22:37.756Z,25.17
2022-12-28T14:25:22.743Z,29.02
2022-12-28T14:27:59.281Z,36.67
2022-12-28T14:30:36.363Z,30.70
2022-12-28T14:33:15.187Z,26.90
2022-12-28T14:35:51.242Z,24.00
2022-12-28T14:38:25.525Z,29.92
2022-12-28T14:40:56.797Z,24.90
2022-12-28T14:43:28.373Z,24.80
2022-12-28T14:46:05.249Z,22.92
2022-12-28T14:48:40.357Z,22.25
2022-12-28T14:51:17.441Z,25.42
2022-12-28T14:53:45.296Z,25.10
2022-12-28T14:56:17.761Z,27.58
2022-12-28T14:58:51.003Z,31.85
2022-12-28T15:01:18.382Z,31.40
2022-12-28T15:03:50.040Z,40.03
2022-12-28T15:06:16.900Z,44.17
2022-12-28T15:08:47.928Z,46.33
2022-12-28T15:11:14.777Z,46.85
2022-12-28T15:13:41.623Z,48.33
2022-12-28T15:16:11.037Z,34.50
2022-12-28T15:18:38.750Z,37.83
2022-12-28T15:21:05.771Z,42.72
2022-12-28T15:23:33.469Z,41.28
2022-12-28T15:26:05.305Z,40.40
2022-12-28T15:28:32.042Z,41.33
2022-12-28T15:30:58.852Z,39.63
2022-12-28T15:33:25.723Z,40.45
2022-12-28T15:35:52.477Z,37.92
2022-12-28T15:38:19.223Z,37.83
2022-12-28T15:40:47.167Z,42.03
2022-12-28T15:43:13.973Z,40.13
2022-12-28T15:45:40.727Z,37.25
2022-12-28T15:48:07.667Z,43.35
2022-12-28T15:50:35.248Z,83.18
2022-12-28T15:53:02.019Z,42.38
2022-12-28T15:55:28.834Z,45.00
2022-12-28T15:57:55.866Z,44.92
2022-12-28T16:00:22.733Z,46.28
2022-12-28T16:02:49.615Z,52.17
2022-12-28T16:05:16.629Z,48.95
2022-12-28T16:07:43.430Z,48.50
2022-12-28T16:10:10.389Z,44.97
2022-12-28T16:12:37.182Z,55.22
2022-12-28T16:15:04.210Z,59.03
2022-12-28T16:17:31.025Z,63.42
2022-12-28T16:19:57.867Z,59.30
2022-12-28T16:22:24.630Z,58.45
2022-12-28T16:24:51.490Z,59.75
2022-12-28T16:27:18.517Z,67.20
2022-12-28T16:29:46.293Z,57.10
2022-12-28T16:32:13.074Z,54.75
2022-12-28T16:34:40.064Z,54.33
2022-12-28T16:37:06.964Z,54.15
2022-12-28T16:39:33.749Z,49.70
2022-12-28T16:42:00.529Z,51.67
2022-12-28T16:44:27.850Z,45.15
2022-12-28T16:46:58.173Z,46.17
2022-12-28T16:49:26.045Z,45.67
2022-12-28T16:51:52.873Z,44.47
2022-12-28T16:54:21.810Z,53.20
2022-12-28T16:56:48.890Z,51.72
2022-12-28T16:59:16.827Z,59.20
2022-12-28T17:01:44.461Z,51.28
2022-12-28T17:04:11.803Z,49.17
2022-12-28T17:06:40.006Z,43.53
2022-12-28T17:09:06.817Z,49.75
2022-12-28T17:11:33.640Z,46.60
2022-12-28T17:14:04.911Z,47.65
2022-12-28T17:16:32.189Z,47.17
2022-12-28T17:19:00.284Z,52.97
2022-12-28T17:21:30.888Z,81.97
2022-12-28T17:23:57.825Z,119.45
2022-12-28T17:26:24.935Z,117.43
2022-12-28T17:28:51.802Z,125.63
2022-12-28T17:31:20.120Z,113.25
2022-12-28T17:33:47.993Z,116.03
2022-12-28T17:36:14.809Z,65.23
2022-12-28T17:38:41.972Z,71.55
2022-12-28T17:41:12.478Z,53.67
2022-12-28T17:43:39.396Z,48.72
2022-12-28T17:46:06.269Z,49.53
2022-12-28T17:48:33.150Z,47.77
2022-12-28T17:51:00.250Z,50.83
2022-12-28T17:53:27.054Z,47.03
2022-12-28T17:55:53.808Z,47.40
2022-12-28T17:58:20.626Z,47.05
2022-12-28T18:00:47.739Z,45.23
2022-12-28T18:03:14.643Z,48.53
2022-12-28T18:05:41.444Z,48.22
2022-12-28T18:08:08.489Z,46.50
2022-12-28T18:10:35.263Z,46.20
2022-12-28T18:13:02.062Z,46.72
2022-12-28T18:15:33.057Z,44.27
2022-12-28T18:18:00.853Z,48.83
2022-12-28T18:20:27.987Z,51.03
2022-12-28T18:22:54.790Z,51.87
2022-12-28T18:25:21.632Z,53.97
2022-12-28T18:27:48.447Z,47.57
2022-12-28T18:30:15.524Z,50.17
2022-12-28T18:32:42.357Z,50.97
2022-12-28T18:35:09.765Z,56.50
2022-12-28T18:37:36.558Z,71.00
2022-12-28T18:40:03.622Z,53.97
2022-12-28T18:42:30.439Z,44.87
2022-12-28T18:44:58.123Z,42.80
2022-12-28T18:47:24.971Z,48.37
2022-12-28T18:49:51.800Z,53.93
2022-12-28T18:52:18.576Z,55.00
2022-12-28T18:54:45.355Z,45.40
2022-12-28T18:57:12.191Z,42.00
2022-12-28T18:59:38.953Z,45.20
2022-12-28T19:02:07.306Z,42.83
2022-12-28T19:04:35.292Z,44.07
2022-12-28T19:07:02.099Z,38.07
2022-12-28T19:09:28.873Z,42.27
2022-12-28T19:11:55.777Z,47.07
2022-12-28T19:14:22.633Z,48.33
2022-12-28T19:16:49.416Z,46.10
2022-12-28T19:19:17.617Z,47.43
2022-12-28T19:21:44.793Z,46.37
2022-12-28T19:24:16.155Z,50.67
2022-12-28T19:26:44.310Z,43.33
2022-12-28T19:29:12.020Z,50.10
2022-12-28T19:31:38.829Z,50.90
2022-12-28T19:34:05.597Z,46.43
2022-12-28T19:36:32.499Z,55.37
2022-12-28T19:38:59.258Z,61.53
2022-12-28T19:41:26.113Z,58.33
2022-12-28T19:43:53.201Z,62.03
2022-12-28T19:46:21.726Z,57.15
2022-12-28T19:48:48.645Z,60.15
2022-12-28T19:51:15.585Z,58.73
2022-12-28T19:53:42.409Z,46.90
2022-12-28T19:56:13.323Z,45.08
2022-12-28T19:58:40.260Z,55.67
2022-12-28T20:01:17.668Z,52.85
2022-12-28T20:03:44.766Z,43.70
2022-12-28T20:06:22.912Z,56.28
2022-12-28T20:08:51.088Z,39.25
2022-12-28T20:11:18.814Z,39.43
2022-12-28T20:13:52.972Z,43.17
2022-12-28T20:16:19.974Z,40.13
2022-12-28T20:18:50.655Z,34.83
2022-12-28T20:21:19.673Z,32.45
2022-12-28T20:23:50.764Z,36.55
2022-12-28T20:26:18.734Z,30.42
2022-12-28T20:28:45.917Z,29.43
2022-12-28T20:31:13.878Z,29.47
2022-12-28T20:33:40.901Z,37.57
2022-12-28T20:36:12.471Z,37.80
2022-12-28T20:38:39.364Z,37.57
2022-12-28T20:41:07.273Z,31.67
2022-12-28T20:43:34.854Z,37.30
2022-12-28T20:46:01.731Z,34.83
2022-12-28T20:48:28.695Z,66.07
2022-12-28T20:50:58.165Z,38.43
2022-12-28T20:53:25.351Z,64.63
2022-12-28T20:55:52.364Z,29.03
2022-12-28T20:58:20.177Z,27.90
2022-12-28T21:00:47.094Z,27.07
2022-12-28T21:03:14.048Z,26.67
2022-12-28T21:05:40.832Z,25.67
2022-12-28T21:08:07.626Z,27.43
2022-12-28T21:10:34.430Z,31.47
2022-12-28T21:13:01.216Z,39.30
2022-12-28T21:15:28.179Z,30.17
2022-12-28T21:17:54.956Z,25.37
2022-12-28T21:20:21.731Z,26.23
2022-12-28T21:22:48.498Z,23.90
2022-12-28T21:25:15.538Z,30.67
2022-12-28T21:27:42.393Z,32.70
2022-12-28T21:30:09.807Z,36.07
2022-12-28T21:32:36.506Z,30.93
2022-12-28T21:35:03.666Z,49.73
2022-12-28T21:37:36.270Z,53.77
2022-12-28T21:40:07.868Z,53.37
2022-12-28T21:42:35.431Z,54.30
2022-12-28T21:45:02.838Z,69.97
2022-12-28T21:47:29.655Z,83.93
2022-12-28T21:49:56.421Z,95.20
2022-12-28T21:52:23.238Z,92.27
2022-12-28T21:54:50.074Z,84.73
2022-12-28T21:57:16.916Z,81.00
2022-12-28T21:59:43.698Z,81.37
2022-12-28T22:02:36.373Z,75.40
2022-12-28T22:05:21.829Z,78.10
2022-12-28T22:07:49.388Z,68.43
2022-12-28T22:10:34.837Z,72.60
2022-12-28T22:13:01.666Z,66.13
2022-12-28T22:15:46.879Z,66.50
2022-12-28T22:18:30.075Z,68.13
2022-12-28T22:21:03.288Z,64.40
2022-12-28T22:23:34.591Z,70.17
2022-12-28T22:26:02.117Z,63.07
2022-12-28T22:28:28.960Z,60.93
2022-12-28T22:30:56.050Z,59.47
2022-12-28T22:33:22.896Z,67.53
2022-12-28T22:35:49.678Z,64.53
2022-12-28T22:38:16.455Z,58.30
2022-12-28T22:40:43.210Z,61.03
2022-12-28T22:43:10.038Z,66.37
2022-12-28T22:45:36.857Z,69.07
2022-12-28T22:48:03.779Z,73.87
2022-12-28T22:50:30.581Z,69.37
2022-12-28T22:52:58.281Z,78.23
2022-12-28T22:55:25.201Z,76.00
2022-12-28T22:57:52.003Z,81.47
2022-12-28T23:00:19.109Z,86.97
2022-12-28T23:02:46.261Z,80.97
2022-12-28T23:05:13.234Z,68.47
2022-12-28T23:07:40.040Z,73.13
2022-12-28T23:10:08.027Z,74.50
2022-12-28T23:12:34.980Z,78.87
2022-12-28T23:15:18.881Z,81.93
2022-12-28T23:17:47.437Z,81.77
2022-12-28T23:20:33.031Z,82.77
2022-12-28T23:23:18.553Z,91.33
2022-12-28T23:26:03.980Z,86.87
2022-12-28T23:28:30.885Z,90.43
2022-12-28T23:30:58.688Z,91.77
2022-12-28T23:33:25.492Z,89.90
2022-12-28T23:35:52.336Z,89.90
2022-12-28T23:38:19.171Z,89.10
2022-12-28T23:40:45.928Z,94.23
2022-12-28T23:43:12.766Z,89.93
2022-12-28T23:45:39.494Z,101.00
2022-12-28T23:48:06.376Z,107.83
2022-12-28T23:50:33.282Z,111.47
2022-12-28T23:53:00.159Z,112.93
2022-12-28T23:55:26.981Z,109.67
2022-12-28T23:57:53.776Z,117.50
